Time;durP1;ratioP1;P1;durP2;ratioP2;P2;SDS_P1;SDS_P2;PMS_P1;PMS_P2;Temp;Humidity;BMP_temperature;BMP_pressure;BME280_temperature;BME280_humidity;BME280_pressure;Samples;Min_cycle;Max_cycle;Signal;HPM_P1;HPM_P2
2024/01/05 00:01:26;;;;;;;21.25;9.93;;;;;;;;;;4923660;29;20771;-71
2024/01/05 00:03:52;;;;;;;22.00;8.30;;;;;;;;;;4930485;28;20083;-71
2024/01/05 00:06:19;;;;;;;23.70;9.88;;;;;;;;;;4928111;29;20759;-72
2024/01/05 00:08:45;;;;;;;17.38;9.13;;;;;;;;;;4944304;28;20047;-72
2024/01/05 00:11:17;;;;;;;20.10;6.88;;;;;;;;;;4943788;28;20035;-72
2024/01/05 00:13:43;;;;;;;16.55;9.52;;;;;;;;;;4942171;28;20118;-72
2024/01/05 00:16:17;;;;;;;26.42;8.70;;;;;;;;;;4940633;28;20051;-72
2024/01/05 00:18:43;;;;;;;18.13;8.55;;;;;;;;;;4913902;29;20047;-71
2024/01/05 00:21:09;;;;;;;13.95;6.32;;;;;;;;;;4916248;29;20043;-71
2024/01/05 00:23:35;;;;;;;14.35;7.93;;;;;;;;;;4922808;29;20102;-72
2024/01/05 00:26:04;;;;;;;12.55;6.20;;;;;;;;;;4939336;29;20047;-72
2024/01/05 00:28:30;;;;;;;19.85;9.43;;;;;;;;;;4927984;29;20043;-72
2024/01/05 00:30:57;;;;;;;16.98;9.98;;;;;;;;;;4925440;29;20073;-72
2024/01/05 00:33:23;;;;;;;19.13;9.68;;;;;;;;;;4911502;29;20051;-72
2024/01/05 00:35:49;;;;;;;21.00;9.80;;;;;;;;;;4929150;29;20495;-72
2024/01/05 00:38:15;;;;;;;22.63;9.93;;;;;;;;;;4928196;29;20047;-72
2024/01/05 00:40:41;;;;;;;18.20;9.98;;;;;;;;;;4928895;29;20138;-71
2024/01/05 00:43:07;;;;;;;16.27;10.35;;;;;;;;;;4928519;29;20071;-72
2024/01/05 00:45:33;;;;;;;14.38;5.68;;;;;;;;;;4911570;29;20059;-71
2024/01/05 00:47:59;;;;;;;18.45;9.65;;;;;;;;;;4895752;29;20047;-72
2024/01/05 00:50:25;;;;;;;19.77;8.25;;;;;;;;;;4919873;29;20530;-72
2024/01/05 00:52:51;;;;;;;16.10;8.52;;;;;;;;;;4911363;29;20048;-71
2024/01/05 00:55:17;;;;;;;19.38;10.15;;;;;;;;;;4910701;29;20130;-72
2024/01/05 00:57:43;;;;;;;20.48;9.30;;;;;;;;;;4909868;29;20061;-72
2024/01/05 01:00:09;;;;;;;20.00;10.13;;;;;;;;;;4894688;29;20048;-72
2024/01/05 01:02:37;;;;;;;19.38;10.48;;;;;;;;;;4910855;29;20492;-72
2024/01/05 01:05:03;;;;;;;23.58;10.35;;;;;;;;;;4910099;29;20606;-71
2024/01/05 01:07:29;;;;;;;22.08;10.05;;;;;;;;;;4921805;29;20083;-71
2024/01/05 01:09:56;;;;;;;22.25;9.82;;;;;;;;;;4910274;29;20052;-72
2024/01/05 01:12:21;;;;;;;24.02;10.60;;;;;;;;;;4906744;29;20420;-72
2024/01/05 01:14:48;;;;;;;23.92;9.35;;;;;;;;;;4910200;29;20075;-72
2024/01/05 01:17:13;;;;;;;22.35;10.88;;;;;;;;;;4909543;29;20086;-71
2024/01/05 01:19:39;;;;;;;17.65;9.88;;;;;;;;;;4910450;29;20134;-71
2024/01/05 01:22:06;;;;;;;25.10;10.25;;;;;;;;;;4925439;29;20047;-72
2024/01/05 01:24:32;;;;;;;19.17;10.38;;;;;;;;;;4909695;29;20519;-71
2024/01/05 01:26:58;;;;;;;20.20;8.57;;;;;;;;;;4894907;29;20126;-72
2024/01/05 01:29:25;;;;;;;18.05;9.35;;;;;;;;;;4908018;29;20051;-71
2024/01/05 01:31:51;;;;;;;13.88;8.13;;;;;;;;;;4929463;29;20835;-71
2024/01/05 01:34:17;;;;;;;18.00;8.20;;;;;;;;;;4917219;29;20043;-71
2024/01/05 01:36:43;;;;;;;21.15;8.77;;;;;;;;;;4914670;29;20066;-72
2024/01/05 01:39:09;;;;;;;18.75;8.40;;;;;;;;;;4938235;29;20074;-72
2024/01/05 01:41:35;;;;;;;17.98;7.95;;;;;;;;;;4912935;29;20051;-72
2024/01/05 01:44:01;;;;;;;15.13;7.45;;;;;;;;;;4912680;29;20142;-72
2024/01/05 01:46:27;;;;;;;17.50;8.05;;;;;;;;;;4926778;29;20043;-72
2024/01/05 01:48:53;;;;;;;14.43;6.88;;;;;;;;;;4926398;29;20061;-72
2024/01/05 01:51:19;;;;;;;11.63;6.68;;;;;;;;;;4944715;29;20074;-72
2024/01/05 01:53:45;;;;;;;19.20;7.78;;;;;;;;;;4927382;29;20138;-72
2024/01/05 01:56:13;;;;;;;14.50;8.23;;;;;;;;;;4945650;29;20134;-72
2024/01/05 01:58:40;;;;;;;14.57;6.15;;;;;;;;;;4951280;28;20047;-72
2024/01/05 02:01:06;;;;;;;14.90;7.30;;;;;;;;;;4931546;29;20138;-72
2024/01/05 02:03:32;;;;;;;12.60;8.02;;;;;;;;;;4918385;29;20797;-71
2024/01/05 02:05:58;;;;;;;12.82;6.30;;;;;;;;;;4917389;29;20047;-72
2024/01/05 02:08:25;;;;;;;17.23;8.55;;;;;;;;;;4922217;29;20101;-72
2024/01/05 02:10:51;;;;;;;17.23;7.55;;;;;;;;;;4919816;29;20079;-72
2024/01/05 02:13:17;;;;;;;18.92;8.77;;;;;;;;;;4926923;29;20134;-72
2024/01/05 02:15:43;;;;;;;14.68;7.65;;;;;;;;;;4924071;29;20109;-71
2024/01/05 02:18:11;;;;;;;15.93;8.55;;;;;;;;;;4927440;29;20046;-72
2024/01/05 02:20:37;;;;;;;18.35;9.60;;;;;;;;;;4927775;29;20134;-72
2024/01/05 02:23:04;;;;;;;21.02;9.25;;;;;;;;;;4921299;29;20497;-72
2024/01/05 02:25:30;;;;;;;19.88;9.63;;;;;;;;;;4916911;29;20122;-71
2024/01/05 02:27:56;;;;;;;19.88;9.65;;;;;;;;;;4947545;28;20122;-72
2024/01/05 02:30:22;;;;;;;16.65;10.60;;;;;;;;;;4920566;29;20058;-72
2024/01/05 02:32:48;;;;;;;19.00;9.25;;;;;;;;;;4927278;29;20059;-72
2024/01/05 02:35:14;;;;;;;17.90;9.93;;;;;;;;;;4938018;29;20058;-72
2024/01/05 02:37:43;;;;;;;20.08;10.05;;;;;;;;;;4921715;29;20058;-71
2024/01/05 02:40:12;;;;;;;16.58;9.20;;;;;;;;;;4923546;29;20047;-72
2024/01/05 02:42:39;;;;;;;16.63;9.55;;;;;;;;;;4924995;29;20061;-71
2024/01/05 02:45:05;;;;;;;18.60;10.38;;;;;;;;;;4926593;29;20087;-71
2024/01/05 02:47:31;;;;;;;17.30;10.20;;;;;;;;;;4925770;29;20896;-72
2024/01/05 02:49:57;;;;;;;20.92;10.07;;;;;;;;;;4926279;29;20047;-71
2024/01/05 02:52:23;;;;;;;13.40;9.35;;;;;;;;;;4919066;29;20047;-72
2024/01/05 02:54:49;;;;;;;14.77;10.40;;;;;;;;;;4932074;29;20066;-72
2024/01/05 02:57:15;;;;;;;15.63;10.02;;;;;;;;;;4914910;29;20055;-72
2024/01/05 02:59:41;;;;;;;18.88;10.45;;;;;;;;;;4936389;29;20075;-71
2024/01/05 03:02:07;;;;;;;18.30;10.15;;;;;;;;;;4917830;29;20480;-71
2024/01/05 03:04:33;;;;;;;15.90;8.23;;;;;;;;;;4922314;29;20134;-71
2024/01/05 03:06:59;;;;;;;15.10;8.73;;;;;;;;;;4920447;29;20047;-72
2024/01/05 03:09:25;;;;;;;11.52;7.78;;;;;;;;;;4924630;29;20459;-72
2024/01/05 03:11:51;;;;;;;17.33;10.38;;;;;;;;;;4923844;29;20058;-72
2024/01/05 03:14:17;;;;;;;13.38;9.20;;;;;;;;;;4911341;29;20141;-72
2024/01/05 03:16:44;;;;;;;16.05;9.02;;;;;;;;;;4941040;29;20073;-71
2024/01/05 03:19:10;;;;;;;13.60;7.95;;;;;;;;;;4923846;29;20062;-72
2024/01/05 03:21:36;;;;;;;16.05;9.05;;;;;;;;;;4921588;29;20054;-71
2024/01/05 03:24:02;;;;;;;12.98;6.60;;;;;;;;;;4925308;29;20426;-71
2024/01/05 03:26:28;;;;;;;15.82;7.90;;;;;;;;;;4921278;29;20054;-72
2024/01/05 03:28:54;;;;;;;12.65;7.05;;;;;;;;;;4924192;29;20051;-72
2024/01/05 03:31:20;;;;;;;13.07;7.07;;;;;;;;;;4918896;29;20066;-72
2024/01/05 03:33:46;;;;;;;16.38;7.47;;;;;;;;;;4923538;29;20062;-72
2024/01/05 03:36:12;;;;;;;9.63;6.15;;;;;;;;;;4905800;29;20189;-71
2024/01/05 03:38:38;;;;;;;11.55;6.95;;;;;;;;;;4911916;29;20529;-71
2024/01/05 03:41:04;;;;;;;7.20;4.90;;;;;;;;;;4903467;29;20086;-71
2024/01/05 03:43:30;;;;;;;10.05;6.15;;;;;;;;;;4908342;29;20515;-72
2024/01/05 03:45:56;;;;;;;11.95;7.07;;;;;;;;;;4909475;29;20051;-71
2024/01/05 03:48:22;;;;;;;11.13;7.13;;;;;;;;;;4908513;29;20066;-72
2024/01/05 03:50:48;;;;;;;10.95;7.15;;;;;;;;;;4890826;29;20044;-71
2024/01/05 03:53:15;;;;;;;13.45;8.35;;;;;;;;;;4907814;29;20402;-71
2024/01/05 03:55:41;;;;;;;8.40;5.50;;;;;;;;;;4908806;29;20051;-71
2024/01/05 03:58:07;;;;;;;15.18;8.63;;;;;;;;;;4923381;29;20066;-71
2024/01/05 04:00:33;;;;;;;12.23;6.78;;;;;;;;;;4925049;29;20055;-71
2024/01/05 04:02:59;;;;;;;11.25;7.18;;;;;;;;;;4912242;29;20059;-71
2024/01/05 04:05:26;;;;;;;13.40;6.40;;;;;;;;;;4911791;29;20570;-71
2024/01/05 04:07:52;;;;;;;12.40;7.68;;;;;;;;;;4912362;29;20051;-71
2024/01/05 04:10:18;;;;;;;11.98;7.95;;;;;;;;;;4911678;29;20414;-71
2024/01/05 04:12:44;;;;;;;12.70;7.88;;;;;;;;;;4911728;29;20190;-71
2024/01/05 04:15:10;;;;;;;14.32;8.88;;;;;;;;;;4926481;29;20071;-71
2024/01/05 04:17:36;;;;;;;13.27;7.80;;;;;;;;;;4911839;29;20828;-71
2024/01/05 04:20:02;;;;;;;14.27;9.20;;;;;;;;;;4926541;29;20047;-71
2024/01/05 04:22:30;;;;;;;15.55;7.63;;;;;;;;;;4911319;29;20499;-71
2024/01/05 04:24:57;;;;;;;15.15;9.20;;;;;;;;;;4926649;29;20055;-71
2024/01/05 04:27:23;;;;;;;12.38;7.38;;;;;;;;;;4911459;29;20126;-72
2024/01/05 04:29:49;;;;;;;14.70;8.55;;;;;;;;;;4910701;29;20815;-71
2024/01/05 04:32:15;;;;;;;13.70;9.15;;;;;;;;;;4910842;29;20056;-72
2024/01/05 04:34:41;;;;;;;18.30;8.88;;;;;;;;;;4920332;29;20054;-71
2024/01/05 04:37:08;;;;;;;13.13;6.35;;;;;;;;;;4924066;29;20047;-72
2024/01/05 04:39:34;;;;;;;16.27;8.93;;;;;;;;;;4921762;29;20771;-72
2024/01/05 04:42:00;;;;;;;14.20;8.63;;;;;;;;;;4926208;29;20047;-72
2024/01/05 04:44:26;;;;;;;15.88;9.77;;;;;;;;;;4925620;29;20812;-72
2024/01/05 04:46:52;;;;;;;12.35;7.93;;;;;;;;;;4934019;29;20252;-72
2024/01/05 04:49:18;;;;;;;15.02;8.90;;;;;;;;;;4925830;29;20062;-71
2024/01/05 04:51:44;;;;;;;16.75;8.55;;;;;;;;;;4923636;29;20154;-71
2024/01/05 04:54:10;;;;;;;10.57;6.97;;;;;;;;;;4925130;29;20052;-71
2024/01/05 04:56:36;;;;;;;17.05;9.57;;;;;;;;;;4925397;29;20705;-72
2024/01/05 04:59:02;;;;;;;14.75;8.82;;;;;;;;;;4923620;29;20066;-72
2024/01/05 05:01:29;;;;;;;20.73;9.43;;;;;;;;;;4926103;29;20487;-72
2024/01/05 05:03:54;;;;;;;17.52;9.05;;;;;;;;;;4925327;29;20159;-72
2024/01/05 05:06:21;;;;;;;16.42;9.43;;;;;;;;;;4927301;29;20039;-72
2024/01/05 05:08:47;;;;;;;17.10;8.70;;;;;;;;;;4926919;29;20119;-72
2024/01/05 05:11:13;;;;;;;19.70;10.23;;;;;;;;;;4925960;29;20162;-72
2024/01/05 05:13:39;;;;;;;22.90;11.45;;;;;;;;;;4923784;29;20495;-72
2024/01/05 05:16:05;;;;;;;20.25;11.00;;;;;;;;;;4910137;29;20083;-72
2024/01/05 05:18:32;;;;;;;18.30;10.70;;;;;;;;;;4923033;29;20859;-71
2024/01/05 05:20:58;;;;;;;18.50;11.15;;;;;;;;;;4894053;29;20047;-72
2024/01/05 05:23:24;;;;;;;17.65;9.50;;;;;;;;;;4922703;29;20055;-71
2024/01/05 05:25:50;;;;;;;21.95;12.30;;;;;;;;;;4923597;29;20047;-72
2024/01/05 05:28:16;;;;;;;20.30;10.57;;;;;;;;;;4925359;29;20047;-72
2024/01/05 05:30:43;;;;;;;18.80;9.30;;;;;;;;;;4925024;29;20765;-73
2024/01/05 05:33:09;;;;;;;18.80;11.05;;;;;;;;;;4902604;29;20522;-72
2024/01/05 05:35:35;;;;;;;22.38;11.23;;;;;;;;;;4909204;29;20052;-72
2024/01/05 05:38:04;;;;;;;23.17;11.15;;;;;;;;;;4903365;29;20052;-72
2024/01/05 05:40:30;;;;;;;17.13;9.23;;;;;;;;;;4925988;29;20044;-72
2024/01/05 05:42:56;;;;;;;17.92;9.68;;;;;;;;;;4907205;29;20051;-71
2024/01/05 05:45:22;;;;;;;19.50;11.13;;;;;;;;;;4918846;29;20048;-72
2024/01/05 05:47:48;;;;;;;22.95;11.43;;;;;;;;;;4909506;29;20085;-72
2024/01/05 05:50:14;;;;;;;23.00;13.88;;;;;;;;;;4902617;29;20575;-71
2024/01/05 05:52:40;;;;;;;20.63;12.77;;;;;;;;;;4909020;29;20068;-72
2024/01/05 05:55:07;;;;;;;24.67;12.73;;;;;;;;;;4899487;29;20127;-72
2024/01/05 05:57:33;;;;;;;25.15;12.65;;;;;;;;;;4909000;29;20087;-72
2024/01/05 05:59:59;;;;;;;24.60;13.65;;;;;;;;;;4904263;29;20052;-72
2024/01/05 06:02:26;;;;;;;24.40;12.45;;;;;;;;;;4925297;29;20550;-72
2024/01/05 06:04:52;;;;;;;24.27;13.23;;;;;;;;;;4906309;29;20051;-72
2024/01/05 06:07:18;;;;;;;19.77;11.95;;;;;;;;;;4906001;29;20143;-71
2024/01/05 06:09:44;;;;;;;16.42;9.77;;;;;;;;;;4907083;29;20044;-71
2024/01/05 06:12:10;;;;;;;22.77;13.13;;;;;;;;;;4902364;29;20496;-72
2024/01/05 06:14:38;;;;;;;24.33;13.90;;;;;;;;;;4914252;29;20043;-72
2024/01/05 06:17:04;;;;;;;21.95;11.65;;;;;;;;;;4914501;29;20055;-71
2024/01/05 06:19:30;;;;;;;24.30;13.60;;;;;;;;;;4901594;29;20515;-72
2024/01/05 06:21:59;;;;;;;18.98;9.95;;;;;;;;;;4906984;29;20051;-71
2024/01/05 06:24:25;;;;;;;21.80;13.50;;;;;;;;;;4906428;29;20051;-72
2024/01/05 06:26:51;;;;;;;26.23;14.40;;;;;;;;;;4908835;29;20054;-72
2024/01/05 06:29:17;;;;;;;31.63;15.02;;;;;;;;;;4923243;29;20048;-72
2024/01/05 06:31:43;;;;;;;25.10;13.77;;;;;;;;;;4916985;29;20113;-72
2024/01/05 06:34:09;;;;;;;21.58;12.10;;;;;;;;;;4926468;29;20134;-72
2024/01/05 06:36:35;;;;;;;24.05;13.13;;;;;;;;;;4930967;29;20040;-72
2024/01/05 06:39:01;;;;;;;22.33;11.38;;;;;;;;;;4918573;29;20055;-71
2024/01/05 06:41:27;;;;;;;22.27;12.77;;;;;;;;;;4915443;29;20044;-71
2024/01/05 06:43:53;;;;;;;24.92;13.13;;;;;;;;;;4921456;29;20046;-72
2024/01/05 06:46:19;;;;;;;28.10;14.05;;;;;;;;;;4919745;29;20847;-72
2024/01/05 06:48:45;;;;;;;21.58;13.10;;;;;;;;;;4925717;29;20043;-72
2024/01/05 06:51:12;;;;;;;30.00;15.10;;;;;;;;;;4923742;29;20449;-72
2024/01/05 06:53:38;;;;;;;25.60;14.25;;;;;;;;;;4924515;29;20043;-72
2024/01/05 06:56:04;;;;;;;25.50;12.38;;;;;;;;;;4927754;29;20054;-72
2024/01/05 06:58:31;;;;;;;28.85;14.52;;;;;;;;;;4927802;29;20795;-71
2024/01/05 07:00:57;;;;;;;24.88;13.25;;;;;;;;;;4923666;29;20055;-71
2024/01/05 07:03:24;;;;;;;23.90;11.90;;;;;;;;;;4915235;29;20081;-71
2024/01/05 07:05:49;;;;;;;28.08;14.88;;;;;;;;;;4916495;29;20079;-72
2024/01/05 07:08:15;;;;;;;27.23;14.07;;;;;;;;;;4926282;29;20205;-72
2024/01/05 07:10:41;;;;;;;19.63;10.45;;;;;;;;;;4918171;29;20051;-72
2024/01/05 07:13:07;;;;;;;25.48;12.90;;;;;;;;;;4935551;29;20043;-72
2024/01/05 07:15:34;;;;;;;24.67;12.82;;;;;;;;;;4949526;28;20066;-72
2024/01/05 07:18:00;;;;;;;30.83;14.73;;;;;;;;;;4927907;29;20865;-72
2024/01/05 07:20:26;;;;;;;28.45;14.85;;;;;;;;;;4925714;29;20043;-72
2024/01/05 07:22:52;;;;;;;22.70;12.98;;;;;;;;;;4912878;29;20047;-71
2024/01/05 07:25:18;;;;;;;31.88;15.63;;;;;;;;;;4916388;29;20043;-72
2024/01/05 07:27:44;;;;;;;26.65;14.10;;;;;;;;;;4927374;29;20061;-72
2024/01/05 07:30:10;;;;;;;33.00;16.77;;;;;;;;;;4921275;29;20054;-72
2024/01/05 07:32:37;;;;;;;31.67;16.55;;;;;;;;;;4925012;29;20066;-71
2024/01/05 07:35:04;;;;;;;31.73;16.75;;;;;;;;;;4927964;29;20475;-72
2024/01/05 07:37:30;;;;;;;35.75;17.10;;;;;;;;;;4943008;29;20782;-71
2024/01/05 07:39:56;;;;;;;29.10;16.17;;;;;;;;;;4925546;29;20051;-72
2024/01/05 07:42:22;;;;;;;30.52;16.38;;;;;;;;;;4927775;29;20043;-71
2024/01/05 07:44:48;;;;;;;25.20;12.70;;;;;;;;;;4929501;29;20049;-72
2024/01/05 07:47:14;;;;;;;36.50;16.45;;;;;;;;;;4932428;29;20086;-72
2024/01/05 07:49:41;;;;;;;32.92;16.92;;;;;;;;;;4919580;29;20191;-71
2024/01/05 07:52:07;;;;;;;28.73;14.45;;;;;;;;;;4917992;29;20051;-72
2024/01/05 07:54:33;;;;;;;33.60;15.55;;;;;;;;;;4940727;29;20050;-71
2024/01/05 07:56:59;;;;;;;29.80;15.38;;;;;;;;;;4920602;29;20082;-72
2024/01/05 07:59:25;;;;;;;34.40;17.42;;;;;;;;;;4944681;29;20050;-72
2024/01/05 08:01:54;;;;;;;35.22;16.88;;;;;;;;;;4923928;29;20051;-71
2024/01/05 08:04:20;;;;;;;34.45;16.52;;;;;;;;;;4929351;29;20055;-71
2024/01/05 08:06:50;;;;;;;34.58;15.90;;;;;;;;;;4947517;28;20054;-71
2024/01/05 08:09:17;;;;;;;31.25;16.13;;;;;;;;;;4948036;29;20052;-71
2024/01/05 08:11:43;;;;;;;25.92;14.13;;;;;;;;;;4928097;29;20605;-71
2024/01/05 08:14:09;;;;;;;33.40;17.35;;;;;;;;;;4931693;29;20392;-71
2024/01/05 08:16:35;;;;;;;32.40;15.85;;;;;;;;;;4929232;29;20047;-70
2024/01/05 08:19:01;;;;;;;40.00;18.17;;;;;;;;;;4944992;28;20051;-73
2024/01/05 08:21:28;;;;;;;35.10;15.80;;;;;;;;;;4917633;28;20051;-72
2024/01/05 08:23:54;;;;;;;32.33;16.92;;;;;;;;;;4932651;28;20134;-71
2024/01/05 08:26:20;;;;;;;37.40;18.45;;;;;;;;;;4922838;29;20130;-72
2024/01/05 08:28:47;;;;;;;36.53;17.88;;;;;;;;;;4928123;29;20380;-72
2024/01/05 08:31:13;;;;;;;40.80;18.10;;;;;;;;;;4933534;29;20059;-72
2024/01/05 08:33:39;;;;;;;36.63;18.13;;;;;;;;;;4929851;29;20047;-71
2024/01/05 08:36:05;;;;;;;35.50;18.23;;;;;;;;;;4929089;29;20369;-72
2024/01/05 08:38:31;;;;;;;34.05;16.10;;;;;;;;;;4930225;29;20160;-72
2024/01/05 08:40:57;;;;;;;38.92;17.70;;;;;;;;;;4945120;28;20518;-72
2024/01/05 08:43:23;;;;;;;33.55;17.33;;;;;;;;;;4945672;29;20048;-73
2024/01/05 08:45:49;;;;;;;39.65;19.25;;;;;;;;;;4926507;28;20090;-73
2024/01/05 08:48:15;;;;;;;39.92;17.52;;;;;;;;;;4924061;29;20082;-72
2024/01/05 08:50:42;;;;;;;32.05;17.73;;;;;;;;;;4929491;29;20050;-71
2024/01/05 08:53:11;;;;;;;30.30;15.68;;;;;;;;;;4928177;29;20078;-73
2024/01/05 08:55:37;;;;;;;35.53;17.50;;;;;;;;;;4928691;29;20835;-72
2024/01/05 08:58:04;;;;;;;39.15;17.88;;;;;;;;;;4942241;29;20059;-73
2024/01/05 09:00:30;;;;;;;33.20;16.08;;;;;;;;;;4924785;29;20914;-73
2024/01/05 09:02:56;;;;;;;20.33;10.55;;;;;;;;;;4946786;29;20115;-72
2024/01/05 09:05:22;;;;;;;29.40;13.73;;;;;;;;;;4928624;29;20126;-74
2024/01/05 09:07:48;;;;;;;30.13;14.70;;;;;;;;;;4943307;28;20384;-73
2024/01/05 09:10:14;;;;;;;31.85;15.35;;;;;;;;;;4926814;29;20043;-73
2024/01/05 09:12:40;;;;;;;33.03;16.55;;;;;;;;;;4926066;29;20043;-71
2024/01/05 09:15:07;;;;;;;24.75;13.65;;;;;;;;;;4942685;28;20058;-69
2024/01/05 09:17:33;;;;;;;33.80;16.23;;;;;;;;;;4929345;28;20051;-70
2024/01/05 09:19:59;;;;;;;30.08;15.90;;;;;;;;;;4920113;28;20581;-69
2024/01/05 09:22:25;;;;;;;30.38;15.88;;;;;;;;;;4921978;29;20074;-69
2024/01/05 09:24:52;;;;;;;30.98;16.13;;;;;;;;;;4942253;28;20856;-68
2024/01/05 09:27:18;;;;;;;33.72;17.02;;;;;;;;;;4923164;29;20074;-69
2024/01/05 09:29:44;;;;;;;34.03;15.43;;;;;;;;;;4922992;28;20574;-70
2024/01/05 09:32:10;;;;;;;28.73;15.40;;;;;;;;;;4921596;29;20647;-70
2024/01/05 09:34:36;;;;;;;35.80;17.17;;;;;;;;;;4919770;28;20138;-69
2024/01/05 09:37:02;;;;;;;36.40;17.50;;;;;;;;;;4914612;29;20046;-70
2024/01/05 09:39:28;;;;;;;28.52;15.00;;;;;;;;;;4921426;29;20238;-69
2024/01/05 09:41:54;;;;;;;32.65;15.68;;;;;;;;;;4918097;29;20510;-70
2024/01/05 09:44:20;;;;;;;28.05;15.07;;;;;;;;;;4928652;29;20047;-70
2024/01/05 09:46:46;;;;;;;29.70;14.43;;;;;;;;;;4928371;29;20125;-70
2024/01/05 09:49:14;;;;;;;28.35;15.38;;;;;;;;;;4923372;29;20059;-69
2024/01/05 09:51:40;;;;;;;33.22;15.70;;;;;;;;;;4920477;29;20098;-70
2024/01/05 09:54:06;;;;;;;25.67;13.70;;;;;;;;;;4919125;29;20047;-70
2024/01/05 09:56:33;;;;;;;24.08;11.75;;;;;;;;;;4917482;29;20051;-70
2024/01/05 09:58:59;;;;;;;23.30;12.13;;;;;;;;;;4919205;29;20046;-70
2024/01/05 10:01:26;;;;;;;21.52;13.18;;;;;;;;;;4921042;29;20122;-69
2024/01/05 10:03:56;;;;;;;22.55;13.30;;;;;;;;;;4923831;29;20832;-70
2024/01/05 10:06:22;;;;;;;23.83;11.95;;;;;;;;;;4924718;29;20784;-70
2024/01/05 10:08:55;;;;;;;31.25;14.70;;;;;;;;;;4922412;28;20047;-70
2024/01/05 10:11:34;;;;;;;26.30;13.77;;;;;;;;;;4923616;29;20051;-69
2024/01/05 10:14:04;;;;;;;25.17;12.43;;;;;;;;;;4926942;28;20105;-70
2024/01/05 10:16:36;;;;;;;27.73;12.60;;;;;;;;;;4919803;29;20157;-70
2024/01/05 10:19:11;;;;;;;27.83;13.20;;;;;;;;;;4923966;29;20057;-70
2024/01/05 10:21:37;;;;;;;26.17;11.90;;;;;;;;;;4922563;29;20083;-69
2024/01/05 10:24:03;;;;;;;25.10;12.32;;;;;;;;;;4922302;29;20062;-70
2024/01/05 10:26:32;;;;;;;29.48;13.98;;;;;;;;;;4923570;29;20075;-70
2024/01/05 10:29:12;;;;;;;25.48;12.65;;;;;;;;;;4930828;29;20047;-70
2024/01/05 10:31:38;;;;;;;29.13;11.25;;;;;;;;;;4918375;29;20566;-70
2024/01/05 10:34:04;;;;;;;23.98;10.75;;;;;;;;;;4919730;28;20066;-70
2024/01/05 10:36:30;;;;;;;25.48;11.68;;;;;;;;;;4941820;28;20051;-70
2024/01/05 10:38:56;;;;;;;22.33;11.18;;;;;;;;;;4923714;29;20044;-70
2024/01/05 10:41:23;;;;;;;23.38;11.10;;;;;;;;;;4918766;28;20053;-70
2024/01/05 10:43:49;;;;;;;18.50;9.77;;;;;;;;;;4934465;28;20047;-70
2024/01/05 10:46:18;;;;;;;22.15;11.02;;;;;;;;;;4926459;29;20082;-70
2024/01/05 10:48:44;;;;;;;28.05;11.15;;;;;;;;;;4923320;29;20074;-70
2024/01/05 10:51:15;;;;;;;26.23;11.55;;;;;;;;;;4907618;28;20823;-69
2024/01/05 10:53:44;;;;;;;18.92;9.88;;;;;;;;;;4931623;29;20054;-70
2024/01/05 10:56:10;;;;;;;18.92;8.75;;;;;;;;;;4909175;29;20122;-70
2024/01/05 10:58:36;;;;;;;19.35;10.25;;;;;;;;;;4919337;29;20071;-70
2024/01/05 11:01:03;;;;;;;16.75;8.65;;;;;;;;;;4919606;29;20051;-69
2024/01/05 11:03:37;;;;;;;23.13;10.23;;;;;;;;;;4921891;29;20047;-70
2024/01/05 11:06:08;;;;;;;19.10;8.82;;;;;;;;;;4901287;29;20050;-69
2024/01/05 11:08:48;;;;;;;17.08;7.60;;;;;;;;;;4925523;28;20909;-70
2024/01/05 11:11:21;;;;;;;13.27;6.30;;;;;;;;;;4918668;28;20047;-69
2024/01/05 11:13:54;;;;;;;11.55;5.63;;;;;;;;;;4925065;28;20050;-70
2024/01/05 11:16:26;;;;;;;14.60;6.13;;;;;;;;;;4933839;28;20047;-69
2024/01/05 11:19:02;;;;;;;11.95;5.93;;;;;;;;;;4924836;29;20047;-70
2024/01/05 11:21:37;;;;;;;11.57;5.20;;;;;;;;;;4915192;29;20054;-69
2024/01/05 11:24:03;;;;;;;13.63;5.60;;;;;;;;;;4922495;29;20055;-70
2024/01/05 11:26:31;;;;;;;13.52;5.97;;;;;;;;;;4921589;29;20043;-70
2024/01/05 11:28:57;;;;;;;12.45;5.88;;;;;;;;;;4918167;28;20051;-70
2024/01/05 11:31:42;;;;;;;6.03;4.03;;;;;;;;;;4922094;29;20134;-71
2024/01/05 11:34:08;;;;;;;9.57;3.10;;;;;;;;;;4934715;28;20046;-71
2024/01/05 11:36:50;;;;;;;5.85;2.40;;;;;;;;;;4918751;29;20048;-71
2024/01/05 11:39:38;;;;;;;3.53;1.90;;;;;;;;;;4941197;28;20563;-71
2024/01/05 11:42:04;;;;;;;2.38;1.95;;;;;;;;;;4913941;29;20058;-71
2024/01/05 11:44:36;;;;;;;4.65;1.85;;;;;;;;;;4932907;28;20045;-71
2024/01/05 11:47:02;;;;;;;3.00;1.80;;;;;;;;;;4920106;29;20407;-71
2024/01/05 11:49:45;;;;;;;5.97;1.45;;;;;;;;;;4938254;29;20054;-70
2024/01/05 11:52:11;;;;;;;2.50;1.60;;;;;;;;;;4892078;29;20121;-70
2024/01/05 11:54:37;;;;;;;1.92;1.42;;;;;;;;;;4916020;28;21060;-71
2024/01/05 11:57:04;;;;;;;4.78;1.70;;;;;;;;;;4920728;29;20471;-71
2024/01/05 11:59:30;;;;;;;2.63;1.50;;;;;;;;;;4938492;29;20058;-71
2024/01/05 12:01:56;;;;;;;2.00;1.15;;;;;;;;;;4915558;29;20054;-70
2024/01/05 12:04:22;;;;;;;2.63;1.42;;;;;;;;;;4919679;29;20054;-70
2024/01/05 12:06:52;;;;;;;1.85;1.10;;;;;;;;;;4921117;29;20411;-71
2024/01/05 12:09:18;;;;;;;1.77;1.35;;;;;;;;;;4919699;29;20455;-71
2024/01/05 12:11:44;;;;;;;2.00;0.93;;;;;;;;;;4920062;29;20500;-71
2024/01/05 12:14:11;;;;;;;5.07;1.50;;;;;;;;;;4936030;29;20043;-71
2024/01/05 12:16:37;;;;;;;1.77;1.38;;;;;;;;;;4919807;29;20035;-71
2024/01/05 12:19:03;;;;;;;1.30;1.20;;;;;;;;;;4918552;29;20055;-71
2024/01/05 12:21:29;;;;;;;1.63;1.23;;;;;;;;;;4921475;29;20047;-71
2024/01/05 12:24:01;;;;;;;2.00;1.30;;;;;;;;;;4935326;29;20106;-73
2024/01/05 12:26:29;;;;;;;1.50;1.40;;;;;;;;;;4922120;29;20061;-71
2024/01/05 12:28:55;;;;;;;1.80;1.13;;;;;;;;;;4919558;28;20058;-71
2024/01/05 12:31:21;;;;;;;3.72;1.27;;;;;;;;;;4922540;29;20050;-71
2024/01/05 12:33:48;;;;;;;1.60;1.50;;;;;;;;;;4925188;29;20055;-70
2024/01/05 12:36:23;;;;;;;2.28;1.20;;;;;;;;;;4922574;29;20055;-74
2024/01/05 12:38:49;;;;;;;2.00;1.17;;;;;;;;;;4939924;29;20075;-71
2024/01/05 12:41:16;;;;;;;2.00;1.48;;;;;;;;;;4919811;29;20138;-71
2024/01/05 12:43:45;;;;;;;1.77;1.15;;;;;;;;;;4916583;29;20163;-71
2024/01/05 12:46:12;;;;;;;1.83;1.10;;;;;;;;;;4924661;29;20046;-71
2024/01/05 12:48:38;;;;;;;1.00;1.00;;;;;;;;;;4920729;29;20133;-71
2024/01/05 12:51:04;;;;;;;0.85;0.80;;;;;;;;;;4925013;29;20059;-71
2024/01/05 12:53:31;;;;;;;1.10;1.00;;;;;;;;;;4912517;29;20521;-71
2024/01/05 12:56:05;;;;;;;2.08;0.90;;;;;;;;;;4921854;29;20043;-71
2024/01/05 12:58:37;;;;;;;1.08;1.02;;;;;;;;;;4920693;29;20058;-70
2024/01/05 13:01:03;;;;;;;0.93;0.90;;;;;;;;;;4938033;28;20051;-70
2024/01/05 13:03:31;;;;;;;0.80;0.70;;;;;;;;;;4924203;29;20419;-71
2024/01/05 13:06:06;;;;;;;0.80;0.80;;;;;;;;;;4918607;29;20059;-70
2024/01/05 13:08:34;;;;;;;1.00;1.00;;;;;;;;;;4921270;29;20130;-70
2024/01/05 13:11:03;;;;;;;1.27;1.13;;;;;;;;;;4938501;29;20059;-70
2024/01/05 13:13:29;;;;;;;0.82;0.82;;;;;;;;;;4939287;28;20058;-71
2024/01/05 13:15:55;;;;;;;1.33;0.95;;;;;;;;;;4925446;28;20146;-71
2024/01/05 13:18:21;;;;;;;1.00;0.82;;;;;;;;;;4936334;29;20039;-71
2024/01/05 13:20:46;;;;;;;1.10;1.00;;;;;;;;;;4919102;28;20043;-71
2024/01/05 13:23:12;;;;;;;0.85;0.85;;;;;;;;;;4921757;29;20054;-71
2024/01/05 13:25:38;;;;;;;1.10;1.10;;;;;;;;;;4923375;29;20831;-71
2024/01/05 13:28:05;;;;;;;1.02;0.90;;;;;;;;;;4919370;29;20118;-71
2024/01/05 13:30:30;;;;;;;0.80;0.80;;;;;;;;;;4923183;29;20086;-70
2024/01/05 13:32:56;;;;;;;2.08;0.80;;;;;;;;;;4917868;29;20151;-70
2024/01/05 13:35:22;;;;;;;1.08;1.00;;;;;;;;;;4917642;29;20459;-71
2024/01/05 13:37:48;;;;;;;1.38;1.27;;;;;;;;;;4917042;28;20054;-71
2024/01/05 13:40:14;;;;;;;1.90;1.20;;;;;;;;;;4933286;29;20070;-70
2024/01/05 13:42:40;;;;;;;1.92;1.80;;;;;;;;;;4939522;28;20043;-71
2024/01/05 13:45:07;;;;;;;2.25;1.23;;;;;;;;;;4925117;28;20046;-71
2024/01/05 13:47:34;;;;;;;1.40;1.05;;;;;;;;;;4930313;29;20122;-71
2024/01/05 13:50:00;;;;;;;2.10;1.80;;;;;;;;;;4915091;29;20063;-70
2024/01/05 13:52:26;;;;;;;2.17;1.58;;;;;;;;;;4924859;29;20049;-71
2024/01/05 13:54:52;;;;;;;1.50;1.40;;;;;;;;;;4923461;29;20054;-71
2024/01/05 13:57:18;;;;;;;1.92;1.50;;;;;;;;;;4924633;29;20125;-71
2024/01/05 13:59:44;;;;;;;2.75;1.75;;;;;;;;;;4938451;29;20162;-71
2024/01/05 14:02:11;;;;;;;2.83;1.85;;;;;;;;;;4925166;28;20050;-71
2024/01/05 14:04:37;;;;;;;1.58;1.48;;;;;;;;;;4916174;29;20750;-71
2024/01/05 14:07:03;;;;;;;1.48;1.15;;;;;;;;;;4926774;29;20113;-71
2024/01/05 14:09:29;;;;;;;2.70;1.23;;;;;;;;;;4921914;29;20140;-71
2024/01/05 14:11:55;;;;;;;1.48;1.38;;;;;;;;;;4922093;28;20849;-71
2024/01/05 14:14:21;;;;;;;1.90;1.70;;;;;;;;;;4921287;29;20051;-70
2024/01/05 14:16:48;;;;;;;1.42;1.33;;;;;;;;;;4922788;29;20075;-71
2024/01/05 14:19:14;;;;;;;2.40;2.15;;;;;;;;;;4923561;29;20047;-70
2024/01/05 14:21:40;;;;;;;3.00;2.40;;;;;;;;;;4922045;29;20038;-71
2024/01/05 14:24:06;;;;;;;2.63;1.95;;;;;;;;;;4930657;29;20110;-71